Summerville, South Carolina
Current Conditions -  °F | °C
As of 5:55 PM on Monday 24 Nov 2014 (Local Time) from KDYB Reporting Station
Overcast Overcast  
Wind Chill: 68°   Ceiling: 4700
Heat Index: 68°   Visibility: 10mi
Dew Point: 64°   Wind: 6mph
Humidity: 88%   Direction: 230°SW
Pressure: 29.95"   Gusts: NA
Location:  33.02°N, 80.18°W
Report Text: KDYB 242255Z AUTO 23005KT 10SM OVC047 20/18 A2995 RMK AO1 LTG DSNT SW AND W
Loading
Personal Weather Stations






























Interactive Weather Map New forecast layout! Learn more

10-Day Weather Forecast

Advertisements
Track Severe Weather on mobile